createdAt,value
2018-07-08T00:06:01.123Z,90.10
2018-07-08T00:09:09.585Z,90.00
2018-07-08T00:12:16.428Z,90.90
2018-07-08T00:15:20.268Z,91.30
2018-07-08T00:18:28.222Z,91.70
2018-07-08T00:21:34.092Z,91.50
2018-07-08T00:24:39.757Z,92.80
2018-07-08T00:27:45.895Z,92.60
2018-07-08T00:30:51.094Z,93.20
2018-07-08T00:33:55.169Z,93.40
2018-07-08T00:36:59.639Z,94.00
2018-07-08T00:43:23.590Z,94.30
2018-07-08T00:46:29.132Z,94.20
2018-07-08T00:49:38.286Z,94.60
2018-07-08T00:52:59.982Z,95.20
2018-07-08T00:56:19.029Z,95.40
2018-07-08T00:59:27.179Z,95.20
2018-07-08T01:02:47.941Z,95.50
2018-07-08T01:06:03.628Z,96.10
2018-07-08T01:09:10.112Z,95.90
2018-07-08T01:15:54.374Z,96.50
2018-07-08T01:19:09.432Z,97.50
2018-07-08T01:22:21.627Z,97.20
2018-07-08T01:25:42.384Z,97.50
2018-07-08T01:28:53.859Z,97.50
2018-07-08T01:32:07.870Z,97.90
2018-07-08T01:38:38.715Z,97.80
2018-07-08T01:41:45.715Z,97.90
2018-07-08T01:44:51.706Z,97.60
2018-07-08T01:47:58.590Z,98.00
2018-07-08T01:51:07.206Z,98.30
2018-07-08T01:54:27.019Z,97.70
2018-07-08T01:57:35.111Z,98.10
2018-07-08T02:00:43.876Z,98.80
2018-07-08T02:03:47.925Z,98.60
2018-07-08T02:07:04.201Z,98.70
2018-07-08T02:10:09.641Z,98.80
2018-07-08T02:13:19.218Z,99.00
2018-07-08T02:16:31.550Z,98.90
2018-07-08T02:19:37.819Z,99.00
2018-07-08T02:22:42.916Z,99.00
2018-07-08T02:25:46.949Z,99.00
2018-07-08T02:28:51.605Z,99.40
2018-07-08T02:32:02.390Z,99.40
2018-07-08T02:35:10.581Z,99.50
2018-07-08T02:38:25.098Z,99.60
2018-07-08T02:41:28.783Z,99.60
2018-07-08T02:44:36.519Z,99.60
2018-07-08T02:47:54.875Z,99.80
2018-07-08T02:51:05.687Z,99.70
2018-07-08T02:57:27.817Z,99.90
2018-07-08T03:00:36.176Z,99.90
2018-07-08T03:03:46.738Z,99.90
2018-07-08T03:06:54.961Z,99.90
2018-07-08T03:10:09.645Z,99.90
2018-07-08T03:13:16.319Z,99.90
2018-07-08T03:16:23.106Z,99.90
2018-07-08T03:19:31.478Z,99.90
2018-07-08T03:22:52.127Z,99.90
2018-07-08T03:25:58.817Z,99.90
2018-07-08T03:29:02.928Z,99.90
2018-07-08T03:32:12.507Z,99.90
2018-07-08T03:35:19.356Z,99.90
2018-07-08T03:38:27.696Z,99.90
2018-07-08T03:41:50.230Z,99.90
2018-07-08T03:45:09.101Z,99.90
2018-07-08T03:48:39.632Z,99.90
2018-07-08T03:51:50.435Z,99.90
2018-07-08T03:54:57.440Z,99.90
2018-07-08T03:58:03.053Z,99.90
2018-07-08T04:01:10.712Z,99.90
2018-07-08T04:04:30.622Z,99.90
2018-07-08T04:11:25.617Z,99.90
2018-07-08T04:14:38.820Z,99.90
2018-07-08T04:17:45.790Z,99.90
2018-07-08T04:21:04.653Z,99.90
2018-07-08T04:24:31.174Z,99.90
2018-07-08T04:27:42.627Z,99.90
2018-07-08T04:31:14.106Z,99.90
2018-07-08T04:34:34.213Z,99.90
2018-07-08T04:37:58.490Z,99.90
2018-07-08T04:46:47.528Z,99.90
2018-07-08T04:50:11.625Z,99.90
2018-07-08T04:54:27.057Z,99.90
2018-07-08T04:58:57.759Z,99.90
2018-07-08T05:02:38.322Z,99.90
2018-07-08T05:11:53.365Z,99.90
2018-07-08T05:20:51.198Z,99.90
2018-07-08T05:29:11.216Z,99.90
2018-07-08T05:32:48.790Z,99.90
2018-07-08T05:36:18.814Z,99.90
2018-07-08T05:43:39.592Z,99.90
2018-07-08T05:46:53.299Z,99.90
2018-07-08T05:50:09.761Z,99.90
2018-07-08T05:57:31.955Z,99.90
2018-07-08T06:01:43.006Z,99.90
2018-07-08T06:04:51.531Z,99.90
2018-07-08T06:08:10.149Z,99.90
2018-07-08T06:11:40.322Z,99.90
2018-07-08T06:22:07.912Z,99.90
2018-07-08T06:25:20.053Z,99.90
2018-07-08T06:28:44.767Z,99.90
2018-07-08T06:31:53.502Z,99.90
2018-07-08T06:38:23.386Z,99.90
2018-07-08T06:41:32.795Z,99.90
2018-07-08T06:48:02.035Z,99.90
2018-07-08T06:51:13.371Z,99.90
2018-07-08T06:54:24.084Z,99.90
2018-07-08T06:57:29.433Z,99.90
2018-07-08T07:00:38.021Z,99.90
2018-07-08T07:03:41.560Z,99.90
2018-07-08T07:06:45.178Z,99.90
2018-07-08T07:09:48.572Z,99.90
2018-07-08T07:12:51.907Z,99.90
2018-07-08T07:15:56.176Z,99.90
2018-07-08T07:18:59.606Z,99.90
2018-07-08T07:22:03.160Z,99.90
2018-07-08T07:25:07.233Z,99.90
2018-07-08T07:28:10.671Z,99.90
2018-07-08T07:31:14.113Z,99.90
2018-07-08T07:34:17.527Z,99.90
2018-07-08T07:40:24.264Z,99.90
2018-07-08T07:43:27.657Z,99.90
2018-07-08T07:46:31.126Z,99.90
2018-07-08T07:49:34.570Z,99.90
2018-07-08T07:52:37.928Z,99.90
2018-07-08T07:55:41.366Z,99.90
2018-07-08T07:58:44.731Z,99.90
2018-07-08T08:01:48.043Z,99.90
2018-07-08T08:04:51.354Z,99.60
2018-07-08T08:07:54.766Z,99.50
2018-07-08T08:10:58.237Z,99.90
2018-07-08T08:14:02.741Z,99.60
2018-07-08T08:17:06.339Z,98.60
2018-07-08T08:20:09.785Z,99.80
2018-07-08T08:23:13.066Z,98.60
2018-07-08T08:26:16.636Z,97.20
2018-07-08T08:29:20.084Z,96.20
2018-07-08T08:32:23.485Z,94.10
2018-07-08T08:35:26.889Z,94.50
2018-07-08T08:38:30.278Z,93.40
2018-07-08T08:41:33.692Z,93.80
2018-07-08T08:44:38.016Z,91.80
2018-07-08T08:47:41.447Z,92.80
2018-07-08T08:50:44.862Z,92.70
2018-07-08T08:53:48.265Z,93.70
2018-07-08T08:56:51.700Z,93.40
2018-07-08T08:59:55.197Z,95.80
2018-07-08T09:06:01.841Z,95.20
2018-07-08T09:09:05.863Z,94.10
2018-07-08T09:12:09.868Z,95.60
2018-07-08T09:15:13.107Z,94.90
2018-07-08T09:18:16.490Z,93.90
2018-07-08T09:21:19.708Z,92.30
2018-07-08T09:24:23.587Z,92.70
2018-07-08T09:27:27.032Z,93.00
2018-07-08T09:30:30.343Z,91.00
2018-07-08T09:33:33.666Z,91.40
2018-07-08T09:36:37.310Z,91.60
2018-07-08T09:39:40.723Z,90.40
2018-07-08T09:42:44.130Z,86.60
2018-07-08T09:45:47.432Z,88.30
2018-07-08T09:48:50.865Z,82.60
2018-07-08T09:51:54.268Z,77.30
2018-07-08T09:54:57.621Z,77.40
2018-07-08T09:58:01.025Z,75.60
2018-07-08T10:01:04.465Z,78.80
2018-07-08T10:04:09.450Z,78.80
2018-07-08T10:07:12.810Z,77.90
2018-07-08T10:10:16.123Z,75.00
2018-07-08T10:13:19.642Z,73.00
2018-07-08T10:16:23.066Z,77.00
2018-07-08T10:19:26.456Z,74.30
2018-07-08T10:22:29.873Z,71.90
2018-07-08T10:25:33.263Z,69.10
2018-07-08T10:28:36.668Z,68.00
2018-07-08T10:31:50.905Z,65.80
2018-07-08T10:34:54.235Z,63.10
2018-07-08T10:37:57.571Z,64.00
2018-07-08T10:41:00.898Z,65.30
2018-07-08T10:44:04.305Z,64.20
2018-07-08T10:47:07.695Z,63.90
2018-07-08T10:50:11.178Z,63.40
2018-07-08T10:53:14.543Z,63.60
2018-07-08T10:56:17.972Z,62.30
2018-07-08T10:59:21.342Z,61.70
2018-07-08T11:02:24.851Z,59.90
2018-07-08T11:05:28.314Z,60.60
2018-07-08T11:08:31.680Z,61.30
2018-07-08T11:11:35.012Z,57.70
2018-07-08T11:14:38.434Z,56.60
2018-07-08T11:17:41.967Z,57.20
2018-07-08T11:20:45.455Z,57.60
2018-07-08T11:23:48.797Z,57.70
2018-07-08T11:26:52.216Z,56.30
2018-07-08T11:29:55.749Z,57.60
2018-07-08T11:32:59.179Z,55.40
2018-07-08T11:36:02.627Z,53.50
2018-07-08T11:39:06.482Z,54.50
2018-07-08T11:42:09.907Z,53.80
2018-07-08T11:45:13.281Z,52.40
2018-07-08T11:48:16.774Z,51.00
2018-07-08T11:51:20.241Z,51.90
2018-07-08T11:54:23.580Z,53.10
2018-07-08T11:57:26.949Z,53.00
2018-07-08T12:00:30.372Z,52.50
2018-07-08T12:03:33.703Z,53.00
2018-07-08T12:06:37.096Z,51.70
2018-07-08T12:09:40.558Z,51.10
2018-07-08T12:12:43.973Z,52.50
2018-07-08T12:15:47.293Z,50.80
2018-07-08T12:18:50.568Z,50.20
2018-07-08T12:21:54.030Z,49.60
2018-07-08T12:24:57.456Z,51.40
2018-07-08T12:28:01.779Z,50.00
2018-07-08T12:31:05.169Z,50.60
2018-07-08T12:34:08.482Z,52.00
2018-07-08T12:37:11.803Z,51.80
2018-07-08T12:40:15.045Z,49.60
2018-07-08T12:43:18.356Z,50.60
2018-07-08T12:46:21.613Z,52.50
2018-07-08T12:49:24.984Z,50.00
2018-07-08T12:52:28.406Z,53.30
2018-07-08T12:55:31.615Z,53.20
2018-07-08T12:58:34.860Z,53.20
2018-07-08T13:01:38.062Z,55.10
2018-07-08T13:04:41.293Z,53.80
2018-07-08T13:07:44.494Z,55.10
2018-07-08T13:10:47.714Z,53.80
2018-07-08T13:13:50.960Z,54.50
2018-07-08T13:16:54.134Z,54.20
2018-07-08T13:19:57.396Z,56.80
2018-07-08T13:23:00.588Z,54.90
2018-07-08T13:26:03.828Z,53.10
2018-07-08T13:29:07.273Z,56.10
2018-07-08T13:32:10.538Z,57.20
2018-07-08T13:35:13.764Z,56.80
2018-07-08T13:38:16.974Z,54.80
2018-07-08T13:41:20.214Z,57.30
2018-07-08T13:44:23.420Z,55.50
2018-07-08T13:47:26.701Z,55.90
2018-07-08T13:50:29.895Z,56.70
2018-07-08T13:53:33.209Z,57.30
2018-07-08T13:56:36.406Z,56.50
2018-07-08T13:59:39.673Z,57.00
2018-07-08T14:02:42.992Z,58.70
2018-07-08T14:08:49.400Z,58.10
2018-07-08T14:11:52.652Z,58.60
2018-07-08T14:14:55.865Z,54.70
2018-07-08T14:17:59.099Z,57.00
2018-07-08T14:21:02.390Z,57.40
2018-07-08T14:24:05.611Z,56.80
2018-07-08T14:27:08.829Z,57.30
2018-07-08T14:30:12.068Z,58.10
2018-07-08T14:33:15.336Z,56.80
2018-07-08T14:36:18.800Z,57.70
2018-07-08T14:42:25.152Z,57.70
2018-07-08T14:45:28.432Z,56.10
2018-07-08T14:48:31.669Z,55.10
2018-07-08T14:51:34.856Z,56.50
2018-07-08T14:54:38.193Z,55.40
2018-07-08T14:57:41.415Z,55.90
2018-07-08T15:00:44.676Z,55.60
2018-07-08T15:03:47.860Z,54.20
2018-07-08T15:06:51.042Z,54.90
2018-07-08T15:09:54.250Z,56.10
2018-07-08T15:12:57.604Z,55.40
2018-07-08T15:19:04.511Z,54.40
2018-07-08T15:22:07.804Z,55.30
2018-07-08T15:25:10.961Z,56.80
2018-07-08T15:28:14.276Z,55.80
2018-07-08T15:31:18.225Z,54.70
2018-07-08T15:34:21.457Z,54.90
2018-07-08T15:37:24.783Z,56.30
2018-07-08T15:40:28.037Z,55.50
2018-07-08T15:46:35.400Z,54.30
2018-07-08T15:49:38.727Z,53.60
2018-07-08T15:52:42.527Z,53.60
2018-07-08T15:55:45.880Z,53.90
2018-07-08T15:58:49.179Z,54.00
2018-07-08T16:01:52.404Z,54.90
2018-07-08T16:04:55.826Z,55.20
2018-07-08T16:07:59.584Z,55.50
2018-07-08T16:11:02.964Z,55.00
2018-07-08T16:14:06.224Z,57.50
2018-07-08T16:17:09.494Z,58.40
2018-07-08T16:20:12.749Z,58.80
2018-07-08T16:23:16.007Z,58.10
2018-07-08T16:26:19.265Z,58.60
2018-07-08T16:29:22.597Z,58.80
2018-07-08T16:32:25.808Z,59.00
2018-07-08T16:35:29.121Z,62.00
2018-07-08T16:38:32.385Z,62.10
2018-07-08T16:41:35.634Z,61.50
2018-07-08T16:44:38.915Z,62.00
2018-07-08T16:47:42.601Z,61.90
2018-07-08T16:50:46.428Z,63.00
2018-07-08T16:53:49.853Z,60.70
2018-07-08T16:56:53.140Z,61.70
2018-07-08T16:59:56.343Z,62.60
2018-07-08T17:02:59.711Z,62.60
2018-07-08T17:06:03.006Z,61.90
2018-07-08T17:09:08.820Z,62.40
2018-07-08T17:12:12.064Z,64.10
2018-07-08T17:15:15.338Z,62.60
2018-07-08T17:18:18.643Z,63.60
2018-07-08T17:21:21.922Z,63.10
2018-07-08T17:27:28.473Z,64.60
2018-07-08T17:30:31.846Z,65.60
2018-07-08T17:33:35.162Z,64.70
2018-07-08T17:36:39.643Z,66.20
2018-07-08T17:39:43.052Z,66.50
2018-07-08T17:42:46.510Z,65.50
2018-07-08T17:45:49.848Z,65.00
2018-07-08T17:48:56.168Z,65.50
2018-07-08T17:51:59.426Z,65.40
2018-07-08T17:55:03.398Z,66.90
2018-07-08T17:58:06.569Z,67.30
2018-07-08T18:01:09.794Z,66.90
2018-07-08T18:04:13.005Z,65.80
2018-07-08T18:07:16.277Z,65.70
2018-07-08T18:10:19.542Z,67.20
2018-07-08T18:13:22.739Z,67.50
2018-07-08T18:16:25.899Z,68.30
2018-07-08T18:19:29.179Z,67.90
2018-07-08T18:22:32.378Z,66.20
2018-07-08T18:25:35.554Z,65.90
2018-07-08T18:28:38.797Z,66.30
2018-07-08T18:31:42.013Z,67.40
2018-07-08T18:34:45.265Z,67.80
2018-07-08T18:37:48.462Z,68.30
2018-07-08T18:40:51.732Z,68.80
2018-07-08T18:43:55.823Z,67.30
2018-07-08T18:46:58.972Z,68.30
2018-07-08T18:50:02.386Z,68.60
2018-07-08T18:53:05.587Z,68.40
2018-07-08T18:56:08.767Z,68.90
2018-07-08T18:59:12.063Z,68.00
2018-07-08T19:02:15.281Z,69.00
2018-07-08T19:05:18.534Z,68.60
2018-07-08T19:08:21.805Z,68.50
2018-07-08T19:11:25.080Z,69.20
2018-07-08T19:14:28.355Z,69.30
2018-07-08T19:17:31.614Z,70.20
2018-07-08T19:20:34.964Z,69.70
2018-07-08T19:23:38.266Z,69.40
2018-07-08T19:26:41.529Z,69.90
2018-07-08T19:29:44.837Z,70.10
2018-07-08T19:32:48.178Z,71.40
2018-07-08T19:35:51.488Z,72.80
2018-07-08T19:38:55.285Z,76.40
2018-07-08T19:41:59.033Z,77.30
2018-07-08T19:45:03.117Z,77.20
2018-07-08T19:48:06.710Z,78.60
2018-07-08T19:51:10.542Z,79.80
2018-07-08T19:54:14.045Z,81.00
2018-07-08T19:57:17.722Z,82.90
2018-07-08T20:00:21.298Z,84.90
2018-07-08T20:03:24.751Z,87.60
2018-07-08T20:06:28.367Z,89.90
2018-07-08T20:09:32.597Z,90.10
2018-07-08T20:12:36.229Z,91.50
2018-07-08T20:15:39.860Z,92.50
2018-07-08T20:18:43.398Z,93.10
2018-07-08T20:21:47.085Z,93.30
2018-07-08T20:24:51.132Z,93.60
2018-07-08T20:27:54.955Z,93.80
2018-07-08T20:30:58.497Z,93.50
2018-07-08T20:34:02.013Z,94.10
2018-07-08T20:37:05.656Z,94.60
2018-07-08T20:40:09.174Z,95.00
2018-07-08T20:43:12.804Z,95.00
2018-07-08T20:46:16.283Z,94.60
2018-07-08T20:49:19.811Z,94.50
2018-07-08T20:52:23.474Z,95.20
2018-07-08T20:55:27.138Z,95.30
2018-07-08T20:58:30.743Z,95.60
2018-07-08T21:01:34.442Z,95.30
2018-07-08T21:04:38.038Z,95.40
2018-07-08T21:07:42.347Z,96.00
2018-07-08T21:10:45.869Z,96.80
2018-07-08T21:13:49.386Z,96.70
2018-07-08T21:16:52.892Z,96.50
2018-07-08T21:19:56.653Z,97.00
2018-07-08T21:23:00.403Z,97.00
2018-07-08T21:26:04.169Z,96.70
2018-07-08T21:29:07.759Z,96.30
2018-07-08T21:32:11.976Z,96.50
2018-07-08T21:35:15.590Z,96.80
2018-07-08T21:38:19.218Z,96.80
2018-07-08T21:44:26.308Z,97.50
2018-07-08T21:47:30.847Z,97.40
2018-07-08T21:50:34.415Z,97.40
2018-07-08T21:53:38.022Z,98.10
2018-07-08T21:56:41.602Z,98.10
2018-07-08T21:59:46.084Z,98.40
2018-07-08T22:02:49.688Z,98.60
2018-07-08T22:05:53.423Z,98.30
2018-07-08T22:08:57.049Z,98.30
2018-07-08T22:12:00.447Z,98.90
2018-07-08T22:15:04.001Z,99.20
2018-07-08T22:18:07.651Z,98.70
2018-07-08T22:21:11.324Z,99.20
2018-07-08T22:24:15.979Z,99.30
2018-07-08T22:27:19.727Z,99.50
2018-07-08T22:30:23.430Z,99.90
2018-07-08T22:33:27.200Z,99.70
2018-07-08T22:36:32.477Z,99.70
2018-07-08T22:39:37.200Z,99.90
2018-07-08T22:42:40.997Z,99.80
2018-07-08T22:45:45.362Z,99.90
2018-07-08T22:48:49.160Z,99.90
2018-07-08T22:51:53.077Z,99.90
2018-07-08T22:54:57.596Z,99.90
2018-07-08T22:58:01.236Z,99.90
2018-07-08T23:01:21.969Z,99.90
2018-07-08T23:04:32.073Z,99.90
2018-07-08T23:07:43.908Z,99.90
2018-07-08T23:10:49.036Z,99.90
2018-07-08T23:13:54.988Z,99.90
2018-07-08T23:17:04.115Z,99.90
2018-07-08T23:20:08.912Z,99.90
2018-07-08T23:23:15.302Z,99.90
2018-07-08T23:26:24.703Z,99.90
2018-07-08T23:29:31.804Z,99.90
2018-07-08T23:32:38.017Z,99.90
2018-07-08T23:35:43.123Z,99.90
2018-07-08T23:38:49.483Z,99.90
2018-07-08T23:41:58.992Z,99.90
2018-07-08T23:45:08.007Z,99.90
2018-07-08T23:48:19.133Z,99.90
2018-07-08T23:51:23.843Z,99.90
2018-07-08T23:54:29.408Z,99.90
2018-07-08T23:57:36.362Z,99.90
